Time;durP1;ratioP1;P1;durP2;ratioP2;P2;SDS_P1;SDS_P2;PMS_P1;PMS_P2;Temp;Humidity;BMP_temperature;BMP_pressure;BME280_temperature;BME280_humidity;BME280_pressure;Samples;Min_cycle;Max_cycle;Signal;HPM_P1;HPM_P2
2022/12/28 05:00:10;;;;;;;7.80;2.90;;;5.60;99.90;;;;;;6060068;23;20013;31
2022/12/28 05:02:36;;;;;;;4.22;1.42;;;5.80;99.90;;;;;;4989017;28;20043;-69
2022/12/28 05:05:02;;;;;;;4.30;1.53;;;6.00;99.90;;;;;;4994303;28;20037;-69
2022/12/28 05:07:28;;;;;;;4.70;1.63;;;6.10;99.90;;;;;;4994380;28;20482;-70
2022/12/28 05:09:53;;;;;;;2.08;1.23;;;6.10;99.90;;;;;;5009349;28;20423;-70
2022/12/28 05:12:20;;;;;;;3.40;1.00;;;6.30;99.90;;;;;;4994060;28;20031;-70
2022/12/28 05:14:45;;;;;;;4.20;1.27;;;6.40;99.90;;;;;;4993397;28;20023;-70
2022/12/28 05:17:11;;;;;;;1.47;0.83;;;6.40;99.90;;;;;;4993591;28;20088;-70
2022/12/28 05:19:36;;;;;;;1.63;0.80;;;6.50;99.90;;;;;;4993790;28;20025;-69
2022/12/28 05:22:02;;;;;;;2.50;1.23;;;6.60;99.90;;;;;;4993874;28;20046;-70
2022/12/28 05:24:27;;;;;;;2.83;0.90;;;6.60;99.90;;;;;;4993718;28;20031;-70
2022/12/28 05:26:53;;;;;;;2.77;0.90;;;6.70;99.90;;;;;;4995522;28;20130;-70
2022/12/28 05:29:19;;;;;;;4.47;1.10;;;6.80;99.90;;;;;;5003451;28;20109;-70
2022/12/28 05:31:44;;;;;;;5.50;0.87;;;6.90;99.90;;;;;;5001761;28;20107;-70
2022/12/28 05:34:10;;;;;;;1.50;0.77;;;6.90;99.90;;;;;;4997846;28;20048;-70
2022/12/28 05:36:36;;;;;;;4.17;0.90;;;7.00;99.90;;;;;;4993571;28;20030;-70
2022/12/28 05:39:03;;;;;;;3.50;0.90;;;7.00;99.90;;;;;;4993580;28;20018;-70
2022/12/28 05:41:29;;;;;;;;;;;7.00;99.90;;;;;;4993840;28;20042;-70
2022/12/28 05:43:56;;;;;;;3.08;0.60;;;7.10;99.90;;;;;;4993557;28;20259;-70
2022/12/28 05:46:25;;;;;;;2.67;0.80;;;7.30;99.90;;;;;;4996745;28;20023;-70
2022/12/28 05:48:51;;;;;;;2.72;0.70;;;7.30;99.90;;;;;;4996814;28;20026;-70
2022/12/28 05:51:18;;;;;;;3.42;0.82;;;7.40;99.90;;;;;;4998525;28;20023;-70
2022/12/28 05:53:44;;;;;;;1.58;0.70;;;7.50;99.90;;;;;;4997722;28;20034;-70
2022/12/28 05:56:19;;;;;;;2.93;0.90;;;7.50;99.90;;;;;;4997000;28;20462;-70
2022/12/28 05:58:46;;;;;;;3.20;0.63;;;7.50;99.90;;;;;;4996554;28;20025;-70
2022/12/28 06:01:16;;;;;;;2.15;0.60;;;7.50;99.90;;;;;;4996534;28;20035;-69
2022/12/28 06:03:43;;;;;;;1.08;0.50;;;7.50;99.90;;;;;;4997277;28;20156;-70
2022/12/28 06:06:11;;;;;;;3.15;0.82;;;7.50;99.90;;;;;;5005227;28;20027;-70
2022/12/28 06:08:38;;;;;;;1.25;0.70;;;7.60;99.90;;;;;;5018314;28;20025;-70
2022/12/28 06:11:06;;;;;;;2.35;0.80;;;7.60;99.90;;;;;;5023540;28;20048;-70
2022/12/28 06:13:32;;;;;;;4.93;0.80;;;7.60;99.90;;;;;;5018750;28;20030;-71
2022/12/28 06:16:03;;;;;;;1.52;0.47;;;7.60;99.90;;;;;;5018013;28;20025;-70
2022/12/28 06:18:29;;;;;;;4.53;0.73;;;7.70;99.90;;;;;;5016995;28;20372;-70
2022/12/28 06:21:01;;;;;;;2.33;0.87;;;7.70;99.90;;;;;;5017247;28;20050;-70
2022/12/28 06:23:27;;;;;;;1.95;0.57;;;7.50;99.90;;;;;;5022429;28;20026;-70
2022/12/28 06:25:52;;;;;;;1.48;0.60;;;7.60;99.90;;;;;;5018932;28;20026;-70
2022/12/28 06:28:18;;;;;;;2.07;0.70;;;7.60;99.90;;;;;;5032031;28;20026;-70
2022/12/28 06:30:43;;;;;;;1.70;0.70;;;7.60;99.90;;;;;;5018408;28;20029;-69
2022/12/28 06:33:09;;;;;;;3.23;0.90;;;7.50;99.90;;;;;;5019693;28;20026;-69
2022/12/28 06:35:40;;;;;;;2.63;1.00;;;7.50;99.90;;;;;;5018034;28;20057;-70
2022/12/28 06:38:05;;;;;;;1.23;0.70;;;7.50;99.90;;;;;;5001156;28;20360;-69
2022/12/28 06:40:31;;;;;;;8.40;3.80;;;7.50;99.90;;;;;;4976829;28;20102;-70
2022/12/28 06:42:56;;;;;;;2.53;0.83;;;7.50;99.90;;;;;;4979001;28;20019;-70
2022/12/28 06:45:22;;;;;;;1.00;0.67;;;7.50;99.90;;;;;;4990523;28;20102;-70
2022/12/28 06:47:47;;;;;;;1.80;0.73;;;7.60;99.90;;;;;;4995773;28;20027;-69
2022/12/28 06:50:13;;;;;;;3.93;0.90;;;7.60;99.90;;;;;;4995886;28;20030;-68
2022/12/28 06:52:38;;;;;;;1.77;0.60;;;7.60;99.90;;;;;;4995852;28;20033;-69
2022/12/28 06:55:04;;;;;;;2.57;1.03;;;7.60;99.90;;;;;;4995140;28;20387;-69
2022/12/28 06:57:30;;;;;;;2.30;0.73;;;7.60;99.90;;;;;;4995815;28;20042;-71
2022/12/28 06:59:55;;;;;;;4.70;1.17;;;7.60;99.90;;;;;;4995813;28;20033;-70
2022/12/28 07:02:21;;;;;;;2.40;1.07;;;7.60;99.90;;;;;;4995489;28;20042;-70
2022/12/28 07:04:46;;;;;;;3.57;1.00;;;7.60;99.90;;;;;;4995516;28;20053;-69
2022/12/28 07:07:12;;;;;;;3.07;1.03;;;7.60;99.90;;;;;;4994446;28;20113;-67
2022/12/28 07:09:37;;;;;;;2.17;0.90;;;7.60;99.90;;;;;;4996018;28;20058;-70
2022/12/28 07:12:03;;;;;;;2.70;1.10;;;7.60;99.90;;;;;;4996323;28;20071;-70
2022/12/28 07:14:31;;;;;;;3.20;1.20;;;7.60;99.90;;;;;;4994765;28;20041;-70
2022/12/28 07:16:56;;;;;;;8.35;0.95;;;7.70;99.90;;;;;;4995203;28;20023;-70
2022/12/28 07:19:22;;;;;;;5.73;1.17;;;7.80;99.90;;;;;;4996822;28;20027;-71
2022/12/28 07:21:49;;;;;;;3.73;1.00;;;7.80;99.90;;;;;;4995225;28;20023;-69
2022/12/28 07:24:14;;;;;;;1.77;0.90;;;7.80;99.90;;;;;;4994956;28;20102;-70
2022/12/28 07:26:40;;;;;;;4.23;0.70;;;7.90;99.90;;;;;;4994204;28;20054;-71
2022/12/28 07:29:06;;;;;;;2.67;0.90;;;8.00;99.90;;;;;;4997117;28;20430;-71
2022/12/28 07:31:33;;;;;;;;;;;7.90;99.90;;;;;;4996223;28;20121;-71
2022/12/28 07:34:00;;;;;;;4.78;1.13;;;7.90;99.90;;;;;;4995413;28;19927;-71
2022/12/28 07:36:27;;;;;;;3.13;0.85;;;7.90;99.90;;;;;;4994886;28;20372;-70
2022/12/28 07:38:53;;;;;;;2.53;0.90;;;8.00;99.90;;;;;;4994616;28;20112;-71
2022/12/28 07:41:24;;;;;;;2.73;1.30;;;8.00;99.90;;;;;;4994961;28;20387;-72
2022/12/28 07:43:49;;;;;;;4.20;1.00;;;8.10;99.90;;;;;;4993904;28;20273;-72
2022/12/28 07:46:22;;;;;;;1.92;0.90;;;8.10;99.90;;;;;;4993542;28;20475;-69
2022/12/28 07:48:48;;;;;;;2.90;0.82;;;8.10;99.90;;;;;;4991435;28;20113;-71
2022/12/28 07:51:22;;;;;;;3.03;0.95;;;8.10;99.90;;;;;;4984509;28;20026;-71
2022/12/28 07:53:50;;;;;;;3.28;0.88;;;8.10;99.90;;;;;;4976709;28;20031;-69
2022/12/28 07:56:18;;;;;;;2.63;0.75;;;8.10;99.90;;;;;;4979284;28;20027;-69
2022/12/28 07:59:04;;;;;;;3.40;1.23;;;8.20;99.90;;;;;;4994615;28;20030;-70
2022/12/28 08:01:33;;;;;;;3.83;1.10;;;8.30;99.90;;;;;;4994441;28;20034;-71
2022/12/28 08:04:01;;;;;;;3.83;1.27;;;8.30;99.90;;;;;;4993589;28;20019;-69
2022/12/28 08:06:28;;;;;;;3.65;1.10;;;8.30;99.90;;;;;;4982045;28;20153;-71
2022/12/28 08:08:56;;;;;;;5.38;1.10;;;8.30;99.90;;;;;;4974482;28;20022;-69
2022/12/28 08:11:25;;;;;;;3.33;1.10;;;8.30;99.90;;;;;;4974897;28;20027;-71
2022/12/28 08:13:52;;;;;;;3.78;1.25;;;8.40;99.90;;;;;;4978032;28;20038;-71
2022/12/28 08:16:20;;;;;;;3.72;1.52;;;8.40;99.90;;;;;;4987437;28;20025;-71
2022/12/28 08:18:47;;;;;;;2.72;1.05;;;8.30;99.90;;;;;;4985514;28;20376;-70
2022/12/28 08:21:34;;;;;;;3.92;1.08;;;8.40;99.90;;;;;;4991825;28;20042;-70
2022/12/28 08:24:01;;;;;;;4.50;1.00;;;8.40;99.90;;;;;;4983339;28;20027;-70
2022/12/28 08:26:35;;;;;;;3.95;1.13;;;8.40;99.90;;;;;;4975033;28;20026;-70
2022/12/28 08:29:04;;;;;;;1.70;0.93;;;8.40;99.90;;;;;;4973676;28;20027;-70
2022/12/28 08:31:36;;;;;;;3.00;1.02;;;8.50;99.90;;;;;;4973920;28;20078;-70
2022/12/28 08:34:03;;;;;;;2.40;1.13;;;8.60;99.90;;;;;;4974659;28;20383;-70
2022/12/28 08:36:29;;;;;;;3.10;1.20;;;8.70;99.90;;;;;;5006011;28;20101;-70
2022/12/28 08:38:56;;;;;;;1.53;0.90;;;8.70;99.90;;;;;;5028626;28;20125;-69
2022/12/28 08:41:23;;;;;;;2.45;1.10;;;8.70;99.90;;;;;;4988370;28;20281;-69
2022/12/28 08:43:51;;;;;;;3.92;1.40;;;8.70;99.90;;;;;;4997462;28;20034;-70
2022/12/28 08:46:19;;;;;;;4.13;1.60;;;8.80;99.90;;;;;;4988908;28;20074;-70
2022/12/28 08:48:46;;;;;;;2.92;1.02;;;8.90;99.90;;;;;;4982405;28;20081;-69
2022/12/28 08:51:15;;;;;;;2.80;1.20;;;8.90;99.90;;;;;;4974597;28;20077;-70
2022/12/28 08:53:41;;;;;;;2.53;0.82;;;8.90;99.90;;;;;;4980603;28;20030;-70
2022/12/28 08:56:17;;;;;;;15.13;9.57;;;8.90;99.90;;;;;;4983526;28;20026;-70
2022/12/28 08:58:44;;;;;;;5.38;2.53;;;9.00;99.90;;;;;;4993403;28;20042;-70
2022/12/28 09:01:15;;;;;;;6.45;2.30;;;9.00;99.90;;;;;;4991851;28;20034;-70
2022/12/28 09:03:46;;;;;;;3.70;1.27;;;9.10;99.90;;;;;;4993481;28;20034;-70
2022/12/28 09:06:15;;;;;;;3.30;1.20;;;9.10;99.90;;;;;;4993376;28;20081;-70
2022/12/28 09:08:41;;;;;;;3.55;1.58;;;9.20;99.90;;;;;;4994261;28;20398;-71
2022/12/28 09:11:11;;;;;;;3.13;1.23;;;9.20;99.90;;;;;;5001453;28;20110;-70
2022/12/28 09:13:37;;;;;;;3.60;1.10;;;9.30;99.90;;;;;;4993392;28;20042;-70
2022/12/28 09:16:16;;;;;;;5.25;1.05;;;9.30;99.90;;;;;;4974826;28;20038;-70
2022/12/28 09:18:43;;;;;;;3.25;1.00;;;9.40;99.90;;;;;;4974724;28;20470;-68
2022/12/28 09:21:17;;;;;;;5.57;1.20;;;9.40;99.90;;;;;;4992196;28;20023;-70
2022/12/28 09:23:44;;;;;;;4.55;1.63;;;9.30;99.90;;;;;;5013174;28;20126;-69
2022/12/28 09:26:15;;;;;;;4.90;1.33;;;9.40;99.90;;;;;;5001167;28;20142;-70
2022/12/28 09:28:47;;;;;;;2.17;0.90;;;9.40;99.90;;;;;;4996275;28;20117;-70
2022/12/28 09:31:13;;;;;;;3.65;1.30;;;9.50;99.90;;;;;;4986156;28;20394;-70
2022/12/28 09:33:57;;;;;;;2.72;1.10;;;9.50;99.90;;;;;;5000265;28;20034;-70
2022/12/28 09:36:24;;;;;;;1.80;0.98;;;9.60;99.90;;;;;;4996649;28;20030;-70
2022/12/28 09:38:50;;;;;;;;;;;9.50;99.90;;;;;;4988194;28;20154;-70
2022/12/28 09:41:32;;;;;;;4.18;1.40;;;9.60;99.90;;;;;;4995673;28;19913;-70
2022/12/28 09:44:16;;;;;;;2.97;1.20;;;9.60;99.90;;;;;;4997608;28;20026;-70
2022/12/28 09:46:53;;;;;;;3.28;1.15;;;9.60;99.90;;;;;;4993664;28;20092;-70
2022/12/28 09:49:26;;;;;;;4.18;1.10;;;9.70;99.90;;;;;;4992961;28;20022;-69
2022/12/28 09:52:20;;;;;;;4.85;1.48;;;9.70;99.90;;;;;;4990199;28;20026;-70
2022/12/28 09:54:46;;;;;;;3.22;1.15;;;9.70;99.90;;;;;;4994148;28;20479;-70
2022/12/28 09:57:17;;;;;;;6.43;1.50;;;9.90;99.90;;;;;;4987737;28;20034;-71
2022/12/28 09:59:44;;;;;;;2.97;1.27;;;9.80;99.90;;;;;;4991615;28;20046;-71
2022/12/28 10:02:32;;;;;;;2.28;0.80;;;9.80;99.90;;;;;;4986821;28;20122;-70
2022/12/28 10:04:58;;;;;;;4.18;2.13;;;9.90;99.90;;;;;;4986947;28;20037;-70
2022/12/28 10:07:24;;;;;;;2.17;1.00;;;10.00;99.90;;;;;;4991504;28;20387;-71
2022/12/28 10:09:50;;;;;;;2.90;1.25;;;10.00;99.90;;;;;;4990616;28;20042;-70
2022/12/28 10:12:20;;;;;;;4.55;1.70;;;10.10;99.90;;;;;;4994957;28;20042;-72
2022/12/28 10:14:46;;;;;;;2.40;1.00;;;10.20;99.90;;;;;;4981882;28;20041;-69
2022/12/28 10:17:14;;;;;;;3.08;1.13;;;10.30;99.90;;;;;;5011158;28;20082;-72
2022/12/28 10:19:39;;;;;;;4.57;1.60;;;10.30;99.90;;;;;;4994575;28;20054;-72
2022/12/28 10:22:12;;;;;;;2.83;1.08;;;10.40;99.90;;;;;;4991330;28;20061;-69
2022/12/28 10:24:38;;;;;;;2.85;1.00;;;10.40;99.90;;;;;;4981574;28;20046;-70
2022/12/28 10:27:06;;;;;;;4.38;1.73;;;10.40;99.90;;;;;;4980732;28;20031;-70
2022/12/28 10:29:33;;;;;;;3.05;1.30;;;10.50;99.90;;;;;;5014214;28;20030;-70
2022/12/28 10:32:05;;;;;;;8.95;3.97;;;10.60;99.90;;;;;;4990508;28;20519;-71
2022/12/28 10:34:33;;;;;;;3.00;1.27;;;10.60;99.90;;;;;;4982580;28;20058;-70
2022/12/28 10:37:13;;;;;;;5.32;1.02;;;10.80;99.90;;;;;;4991708;28;20027;-72
2022/12/28 10:39:38;;;;;;;4.57;0.95;;;11.00;99.90;;;;;;4976325;28;20042;-71
2022/12/28 10:42:21;;;;;;;1.83;0.97;;;11.10;99.90;;;;;;4977592;28;20102;-72
2022/12/28 10:44:48;;;;;;;2.08;0.70;;;11.20;99.90;;;;;;4977095;28;20019;-72
2022/12/28 10:47:36;;;;;;;1.10;0.40;;;11.10;99.90;;;;;;4976817;28;20090;-70
2022/12/28 10:50:25;;;;;;;3.55;0.93;;;11.00;99.90;;;;;;4979984;28;20042;-73
2022/12/28 10:52:56;;;;;;;3.45;0.98;;;11.00;99.90;;;;;;4980088;28;20026;-72
2022/12/28 10:55:28;;;;;;;3.08;1.20;;;11.00;99.90;;;;;;4994127;28;20442;-72
2022/12/28 10:57:53;;;;;;;4.72;1.25;;;10.90;99.90;;;;;;4991528;28;20089;-72
2022/12/28 11:00:24;;;;;;;1.27;0.80;;;10.90;99.90;;;;;;4988777;28;20022;-72
2022/12/28 11:02:50;;;;;;;2.42;0.90;;;10.90;99.90;;;;;;4976215;28;20027;-70
2022/12/28 11:05:22;;;;;;;2.70;1.00;;;11.00;99.90;;;;;;4991479;28;20484;-71
2022/12/28 11:07:48;;;;;;;1.40;0.85;;;11.10;99.90;;;;;;4975041;28;20026;-72
2022/12/28 11:10:29;;;;;;;2.10;0.85;;;11.10;99.90;;;;;;4991682;28;20105;-71
2022/12/28 11:12:56;;;;;;;3.65;1.05;;;11.10;99.90;;;;;;4993257;28;20026;-72
2022/12/28 11:15:27;;;;;;;2.40;0.82;;;11.00;99.90;;;;;;4986549;28;20018;-71
2022/12/28 11:18:06;;;;;;;3.05;0.80;;;11.10;99.90;;;;;;4986872;28;20031;-72
2022/12/28 11:20:34;;;;;;;4.07;1.63;;;11.20;99.90;;;;;;4975467;28;20030;-72
2022/12/28 11:23:03;;;;;;;1.35;0.75;;;11.20;99.90;;;;;;4993300;28;20110;-72
2022/12/28 11:25:32;;;;;;;3.13;1.10;;;11.20;99.90;;;;;;4996446;28;20027;-74
2022/12/28 11:27:59;;;;;;;1.88;0.70;;;11.20;99.90;;;;;;5010593;28;20033;-74
2022/12/28 11:30:25;;;;;;;2.85;0.80;;;11.20;99.90;;;;;;4993917;28;20030;-73
2022/12/28 11:33:03;;;;;;;2.05;0.90;;;11.30;99.90;;;;;;4995330;28;20027;-73
2022/12/28 11:35:33;;;;;;;2.10;0.93;;;11.60;99.90;;;;;;4976662;28;20041;-73
2022/12/28 11:38:02;;;;;;;2.35;0.90;;;11.60;99.90;;;;;;4981435;28;20030;-72
2022/12/28 11:40:51;;;;;;;2.28;1.40;;;11.60;99.90;;;;;;4995081;28;20037;-71
2022/12/28 11:43:29;;;;;;;1.25;0.75;;;11.50;99.90;;;;;;4990198;28;20468;-71
2022/12/28 11:45:59;;;;;;;4.07;0.80;;;11.50;99.90;;;;;;4985994;28;20022;-71
2022/12/28 11:48:39;;;;;;;3.67;0.80;;;11.50;99.90;;;;;;4995801;28;20169;-73
2022/12/28 11:51:18;;;;;;;1.45;0.75;;;11.60;99.90;;;;;;4995892;28;20037;-71
2022/12/28 11:53:43;;;;;;;2.55;0.88;;;11.60;99.90;;;;;;4992885;28;20471;-70
2022/12/28 11:56:20;;;;;;;3.53;0.90;;;11.50;99.90;;;;;;4992224;28;20097;-71
2022/12/28 11:59:01;;;;;;;3.85;0.90;;;11.50;99.90;;;;;;4994743;28;20395;-71
2022/12/28 12:01:26;;;;;;;2.08;0.60;;;11.50;99.90;;;;;;4994907;28;20478;-71
2022/12/28 12:03:57;;;;;;;1.50;0.70;;;11.50;99.90;;;;;;4994757;28;20023;-71
2022/12/28 12:06:41;;;;;;;1.45;0.50;;;11.40;99.90;;;;;;4996393;28;20059;-71
2022/12/28 12:09:33;;;;;;;1.58;0.80;;;11.40;99.90;;;;;;4994287;28;20161;-70
2022/12/28 12:12:02;;;;;;;2.55;0.70;;;11.50;99.90;;;;;;4994600;28;20093;-74
2022/12/28 12:14:42;;;;;;;2.92;0.73;;;11.60;99.90;;;;;;4993290;28;20026;-73
2022/12/28 12:17:19;;;;;;;2.80;0.68;;;11.50;99.90;;;;;;4986924;28;20554;-72
2022/12/28 12:19:54;;;;;;;3.78;1.63;;;11.60;99.90;;;;;;4990395;28;20031;-70
2022/12/28 12:22:22;;;;;;;1.45;0.70;;;11.60;99.90;;;;;;4994411;28;20026;-71
2022/12/28 12:25:19;;;;;;;1.25;0.60;;;11.70;99.90;;;;;;4990196;28;20019;-71
2022/12/28 12:27:53;;;;;;;1.83;0.60;;;11.60;99.90;;;;;;4991556;28;20494;-70
2022/12/28 12:30:21;;;;;;;2.25;0.70;;;11.40;99.90;;;;;;4990938;28;20034;-70
2022/12/28 12:32:55;;;;;;;1.83;0.73;;;11.40;99.90;;;;;;4975162;28;20027;-71
2022/12/28 12:35:27;;;;;;;3.15;0.80;;;11.40;99.90;;;;;;4974649;28;20054;-71
2022/12/28 12:38:29;;;;;;;4.60;0.90;;;11.40;99.90;;;;;;4974796;28;20463;-71
2022/12/28 12:41:35;;;;;;;3.35;0.90;;;11.40;99.90;;;;;;4973496;28;20388;-69
2022/12/28 12:44:19;;;;;;;1.52;0.80;;;11.60;99.90;;;;;;4974820;28;20110;-70
2022/12/28 12:47:22;;;;;;;3.92;0.90;;;11.50;99.90;;;;;;4989902;28;20042;-72
2022/12/28 12:49:54;;;;;;;2.00;0.80;;;11.60;99.90;;;;;;4974116;28;20105;-73
2022/12/28 12:53:04;;;;;;;3.63;1.00;;;11.60;99.90;;;;;;4975786;28;20041;-72
2022/12/28 12:55:40;;;;;;;3.33;0.85;;;11.70;99.90;;;;;;4976873;28;20058;-71
2022/12/28 12:58:30;;;;;;;2.97;0.90;;;11.60;99.90;;;;;;4981568;28;20038;-71
2022/12/28 13:01:24;;;;;;;1.88;0.80;;;11.70;99.90;;;;;;4984433;28;20038;-70
2022/12/28 13:03:52;;;;;;;2.20;1.05;;;11.60;99.90;;;;;;4985231;28;20023;-70
2022/12/28 13:06:28;;;;;;;2.53;1.20;;;11.60;99.90;;;;;;4997555;28;20046;-72
2022/12/28 13:08:57;;;;;;;2.35;0.88;;;11.50;99.90;;;;;;4990939;28;20026;-71
2022/12/28 13:11:23;;;;;;;5.45;2.60;;;11.60;99.90;;;;;;4977857;28;20022;-71
2022/12/28 13:13:51;;;;;;;1.53;0.73;;;11.50;99.90;;;;;;4978010;28;20023;-72
2022/12/28 13:16:23;;;;;;;2.92;1.38;;;11.60;99.90;;;;;;4978502;28;20081;-72
2022/12/28 13:18:53;;;;;;;2.28;0.85;;;11.60;99.90;;;;;;4993059;28;20510;-71
2022/12/28 13:21:20;;;;;;;5.32;2.00;;;11.60;99.90;;;;;;4992491;28;20030;-71
2022/12/28 13:23:46;;;;;;;4.28;1.40;;;11.70;99.90;;;;;;4982222;28;20161;-72
2022/12/28 13:26:14;;;;;;;2.55;0.73;;;11.70;99.90;;;;;;4997101;28;20022;-72
2022/12/28 13:28:58;;;;;;;5.72;1.40;;;11.70;99.90;;;;;;4997097;28;20034;-72
2022/12/28 13:31:36;;;;;;;1.83;0.80;;;11.70;99.90;;;;;;4996952;28;20476;-71
2022/12/28 13:34:33;;;;;;;2.90;1.40;;;11.70;99.90;;;;;;4997390;28;20399;-72
2022/12/28 13:37:15;;;;;;;3.97;1.98;;;11.70;99.90;;;;;;4997948;28;20053;-71
2022/12/28 13:39:41;;;;;;;2.92;1.17;;;11.60;99.90;;;;;;4996540;28;20436;-71
2022/12/28 13:42:19;;;;;;;3.50;1.43;;;11.60;99.90;;;;;;4997264;28;20110;-71
2022/12/28 13:44:51;;;;;;;2.42;0.95;;;11.60;99.90;;;;;;4986432;28;20449;-71
2022/12/28 13:47:32;;;;;;;2.47;0.90;;;11.60;99.90;;;;;;4979385;28;20058;-71
2022/12/28 13:50:14;;;;;;;4.85;1.70;;;11.60;99.90;;;;;;4997393;28;20105;-72
2022/12/28 13:53:01;;;;;;;7.75;2.67;;;11.60;99.90;;;;;;4996235;28;20089;-72
2022/12/28 13:55:36;;;;;;;;;;;11.60;99.90;;;;;;4978590;28;20033;-71
2022/12/28 13:58:07;;;;;;;2.85;1.23;;;11.50;99.90;;;;;;4977522;28;20008;-72
2022/12/28 14:00:35;;;;;;;3.05;1.27;;;11.50;99.90;;;;;;5007027;28;20109;-71
2022/12/28 14:03:05;;;;;;;4.75;2.00;;;11.50;99.90;;;;;;5017916;28;20038;-71
2022/12/28 14:05:32;;;;;;;3.45;0.82;;;11.50;99.90;;;;;;4994945;28;20029;-71
2022/12/28 14:07:57;;;;;;;;;;;11.50;99.90;;;;;;4997227;28;20026;-71
2022/12/28 14:10:24;;;;;;;5.22;2.25;;;11.50;99.90;;;;;;4996098;28;19906;-71
2022/12/28 14:12:51;;;;;;;4.88;1.10;;;11.60;99.90;;;;;;4996017;28;20037;-71
2022/12/28 14:15:17;;;;;;;1.50;0.80;;;11.50;99.90;;;;;;4994482;28;20065;-71
2022/12/28 14:17:45;;;;;;;2.72;0.80;;;11.50;99.90;;;;;;4996735;28;20023;-71
2022/12/28 14:20:11;;;;;;;2.65;1.20;;;11.40;99.90;;;;;;4992923;28;20077;-71
2022/12/28 14:22:38;;;;;;;3.05;1.13;;;11.50;99.90;;;;;;4991375;28;20030;-72
2022/12/28 14:25:11;;;;;;;2.97;0.93;;;11.60;99.90;;;;;;4977591;28;20081;-71
2022/12/28 14:27:45;;;;;;;4.13;1.17;;;11.70;99.90;;;;;;4977137;28;20396;-69
2022/12/28 14:30:22;;;;;;;2.55;0.90;;;11.70;99.90;;;;;;4975754;28;20023;-68
2022/12/28 14:32:47;;;;;;;3.30;1.02;;;11.90;99.90;;;;;;4984855;28;20026;-70
2022/12/28 14:35:23;;;;;;;2.77;1.53;;;11.80;99.90;;;;;;4989777;28;20395;-70
2022/12/28 14:37:55;;;;;;;5.90;1.40;;;11.90;99.90;;;;;;4995883;28;20031;-69
2022/12/28 14:40:24;;;;;;;2.40;1.20;;;11.90;99.90;;;;;;4995998;28;20463;-69
2022/12/28 14:42:50;;;;;;;2.38;0.75;;;11.80;99.90;;;;;;4991200;28;20098;-68
2022/12/28 14:45:22;;;;;;;;;;;11.80;99.90;;;;;;4976799;28;20023;-68
2022/12/28 14:47:54;;;;;;;4.32;2.60;;;11.80;99.90;;;;;;4985270;28;19940;-68
2022/12/28 14:50:25;;;;;;;1.73;0.70;;;11.80;99.90;;;;;;5006103;28;20018;-69
2022/12/28 14:53:04;;;;;;;3.17;0.90;;;11.70;99.90;;;;;;5008500;28;20045;-69
2022/12/28 14:55:38;;;;;;;2.67;1.00;;;11.60;99.90;;;;;;5003775;28;20045;-70
2022/12/28 14:58:19;;;;;;;1.13;0.70;;;11.60;99.90;;;;;;5007931;28;20031;-69
2022/12/28 15:01:01;;;;;;;4.07;1.70;;;11.60;99.90;;;;;;5000138;28;20391;-69
2022/12/28 15:03:29;;;;;;;3.30;0.68;;;11.50;99.90;;;;;;4981116;28;20500;-70
2022/12/28 15:05:57;;;;;;;3.40;1.35;;;11.40;99.90;;;;;;4980391;28;20040;-69
2022/12/28 15:08:23;;;;;;;3.70;0.90;;;11.30;99.90;;;;;;4988672;28;20022;-69
2022/12/28 15:10:55;;;;;;;4.97;1.10;;;11.20;99.90;;;;;;5015980;28;20029;-71
2022/12/28 15:13:21;;;;;;;3.03;0.80;;;11.20;99.90;;;;;;4999975;28;20037;-71
2022/12/28 15:16:01;;;;;;;2.63;0.80;;;11.10;99.90;;;;;;5012734;28;20022;-69
2022/12/28 15:18:29;;;;;;;4.45;0.75;;;11.10;99.90;;;;;;4984600;28;20030;-69
2022/12/28 15:20:55;;;;;;;4.70;1.10;;;11.10;99.90;;;;;;4978113;28;20124;-69
2022/12/28 15:23:21;;;;;;;1.70;0.73;;;11.00;99.90;;;;;;4977344;28;20030;-69
2022/12/28 15:25:47;;;;;;;2.25;1.15;;;11.00;99.90;;;;;;4982981;28;20089;-69
2022/12/28 15:28:13;;;;;;;4.93;1.10;;;11.00;99.90;;;;;;4979501;28;20080;-69
2022/12/28 15:30:40;;;;;;;1.55;0.90;;;11.00;99.90;;;;;;4975248;28;20106;-70
2022/12/28 15:33:06;;;;;;;3.38;1.15;;;10.90;99.90;;;;;;4976632;28;20077;-70
2022/12/28 15:35:32;;;;;;;1.73;1.00;;;10.90;99.90;;;;;;4983425;28;20023;-70
2022/12/28 15:37:58;;;;;;;2.08;1.00;;;10.90;99.90;;;;;;4975773;28;20031;-70
2022/12/28 15:40:24;;;;;;;1.33;0.77;;;10.80;99.90;;;;;;4974433;28;20046;-69
2022/12/28 15:42:49;;;;;;;2.17;0.83;;;10.80;99.90;;;;;;4975447;28;20058;-70
2022/12/28 15:45:15;;;;;;;1.97;1.07;;;10.80;99.90;;;;;;4974958;28;20085;-69
2022/12/28 15:47:41;;;;;;;2.83;0.60;;;10.70;99.90;;;;;;4977024;28;20038;-69
2022/12/28 15:50:07;;;;;;;2.57;1.00;;;10.70;99.90;;;;;;5004791;28;20027;-68
2022/12/28 15:52:33;;;;;;;3.20;0.85;;;10.70;99.90;;;;;;4974986;28;20085;-73
2022/12/28 15:54:59;;;;;;;1.95;0.80;;;10.70;99.90;;;;;;4975523;28;20031;-71
2022/12/28 15:57:25;;;;;;;4.13;1.10;;;10.60;99.90;;;;;;4995202;28;20121;-71
2022/12/28 15:59:53;;;;;;;3.63;1.05;;;10.60;99.90;;;;;;4995647;28;20030;-71
2022/12/28 16:02:18;;;;;;;2.53;1.17;;;10.60;99.90;;;;;;4996019;28;20026;-71
2022/12/28 16:04:44;;;;;;;5.13;1.30;;;10.50;99.90;;;;;;4994593;28;20022;-71
2022/12/28 16:07:09;;;;;;;4.07;1.20;;;10.50;99.90;;;;;;4995117;28;20050;-68
2022/12/28 16:09:35;;;;;;;2.73;1.20;;;10.50;99.90;;;;;;4992979;28;20364;-71
2022/12/28 16:12:01;;;;;;;3.80;1.30;;;10.60;99.90;;;;;;4988240;28;20026;-69
2022/12/28 16:14:26;;;;;;;3.53;1.33;;;10.50;99.90;;;;;;4984760;28;20076;-73
2022/12/28 16:16:52;;;;;;;1.77;1.10;;;10.60;99.90;;;;;;4993440;28;20509;-72
2022/12/28 16:19:18;;;;;;;3.83;1.20;;;10.60;99.90;;;;;;4994576;28;20121;-71
2022/12/28 16:21:43;;;;;;;7.28;1.40;;;10.60;99.90;;;;;;4977933;28;20030;-70
2022/12/28 16:24:09;;;;;;;4.60;1.50;;;10.50;99.90;;;;;;4974463;28;20026;-69
2022/12/28 16:26:35;;;;;;;4.43;2.05;;;10.50;99.90;;;;;;4975778;28;20476;-69
2022/12/28 16:29:01;;;;;;;3.90;1.50;;;10.60;99.90;;;;;;4974591;28;20045;-73
2022/12/28 16:31:35;;;;;;;3.67;1.88;;;10.60;99.90;;;;;;4975012;28;20027;-69
2022/12/28 16:34:13;;;;;;;5.43;1.40;;;10.60;99.90;;;;;;4979123;28;20066;-72
2022/12/28 16:36:39;;;;;;;2.53;1.25;;;10.60;99.90;;;;;;4974085;28;20361;-70
2022/12/28 16:39:07;;;;;;;3.72;1.73;;;10.60;99.90;;;;;;4974224;28;20451;-70
2022/12/28 16:41:35;;;;;;;3.20;1.58;;;10.60;99.90;;;;;;4973157;28;20058;-70
2022/12/28 16:44:03;;;;;;;4.38;2.90;;;10.60;99.90;;;;;;4974552;28;20023;-73
2022/12/28 16:46:29;;;;;;;2.08;1.27;;;10.60;99.90;;;;;;4974578;28;20031;-73
2022/12/28 16:48:54;;;;;;;5.17;1.47;;;10.60;99.90;;;;;;4989646;28;20085;-70
2022/12/28 16:51:20;;;;;;;4.00;2.00;;;10.70;99.90;;;;;;4994333;28;20026;-70
2022/12/28 16:53:46;;;;;;;2.77;1.47;;;10.60;99.90;;;;;;4987053;28;20519;-69
2022/12/28 16:56:11;;;;;;;2.22;1.20;;;10.60;99.90;;;;;;4998607;28;20030;-69
2022/12/28 16:58:37;;;;;;;1.77;1.00;;;10.60;99.90;;;;;;4993029;28;20034;-69
2022/12/28 17:01:07;;;;;;;3.20;1.40;;;10.70;99.90;;;;;;4997522;28;20076;-70
2022/12/28 17:03:33;;;;;;;3.38;1.67;;;10.70;99.90;;;;;;4977836;28;20082;-69
2022/12/28 17:05:59;;;;;;;2.47;2.00;;;10.60;99.90;;;;;;4974739;28;20029;-71
2022/12/28 17:08:25;;;;;;;4.78;1.70;;;10.70;99.90;;;;;;4996390;28;20106;-71
2022/12/28 17:10:51;;;;;;;2.15;1.40;;;10.70;99.90;;;;;;4977568;28;20034;-70
2022/12/28 17:15:44;;;;;;;4.37;1.90;;;10.70;99.90;;;;;;5015102;23;20050;-70
2022/12/28 17:18:10;;;;;;;2.67;1.60;;;10.60;99.90;;;;;;4996366;28;20483;-71
2022/12/28 17:20:36;;;;;;;3.38;1.40;;;10.70;99.90;;;;;;4994031;28;20030;-70
2022/12/28 17:23:03;;;;;;;10.10;6.05;;;10.60;99.90;;;;;;4992074;28;20027;-70
2022/12/28 17:25:30;;;;;;;5.88;2.72;;;10.60;99.90;;;;;;4992197;28;20109;-71
2022/12/28 17:27:55;;;;;;;2.28;1.30;;;10.60;99.90;;;;;;4993738;28;20105;-67
2022/12/28 17:30:21;;;;;;;3.63;1.80;;;10.70;99.90;;;;;;4993530;28;20101;-68
2022/12/28 17:32:46;;;;;;;2.93;2.07;;;10.60;99.90;;;;;;4993800;28;20438;-69
2022/12/28 17:35:13;;;;;;;3.20;1.50;;;10.70;99.90;;;;;;4993520;28;20031;-67
2022/12/28 17:37:39;;;;;;;2.13;1.30;;;10.60;99.90;;;;;;4993201;28;20030;-68
2022/12/28 17:40:05;;;;;;;3.47;1.80;;;10.60;99.90;;;;;;4994982;28;20494;-67
2022/12/28 17:42:31;;;;;;;3.67;2.08;;;10.60;99.90;;;;;;4995664;28;20030;-68
2022/12/28 17:44:56;;;;;;;6.60;3.50;;;10.60;99.90;;;;;;4985858;28;20031;-67
2022/12/28 17:47:22;;;;;;;3.90;1.37;;;10.50;99.90;;;;;;4977971;28;20105;-68
2022/12/28 17:49:48;;;;;;;4.55;1.67;;;10.60;99.90;;;;;;4977613;28;20023;-68
2022/12/28 17:52:18;;;;;;;4.80;2.20;;;10.60;99.90;;;;;;4990646;28;20042;-68
2022/12/28 17:54:44;;;;;;;2.67;1.50;;;10.60;99.90;;;;;;4997288;28;20026;-68
2022/12/28 17:57:10;;;;;;;5.90;2.23;;;10.60;99.90;;;;;;4996384;28;20053;-68
2022/12/28 17:59:35;;;;;;;4.67;2.70;;;10.60;99.90;;;;;;4990787;28;20026;-68
2022/12/28 18:02:03;;;;;;;2.63;1.50;;;10.50;99.90;;;;;;4991170;28;20037;-69
2022/12/28 18:04:29;;;;;;;2.40;1.80;;;10.50;99.90;;;;;;4996722;28;20022;-72
2022/12/28 18:06:55;;;;;;;2.00;1.15;;;10.50;99.90;;;;;;4995475;28;20022;-73
2022/12/28 18:09:21;;;;;;;2.92;1.30;;;10.60;99.90;;;;;;4996891;28;20026;-72